sensor_id;sensor_type;location;lat;lon;timestamp;pressure;altitude;pressure_sealevel;temperature;humidity
75536;BME280;64119;52.070;20.804;2023-06-19T00:00:24;100354.16;;;13.00;87.84
75536;BME280;64119;52.070;20.804;2023-06-19T00:03:11;100359.20;;;12.96;88.94
75536;BME280;64119;52.070;20.804;2023-06-19T00:05:38;100359.70;;;12.92;89.75
75536;BME280;64119;52.070;20.804;2023-06-19T00:08:04;100366.00;;;12.89;89.37
75536;BME280;64119;52.070;20.804;2023-06-19T00:10:33;100367.64;;;12.86;89.22
75536;BME280;64119;52.070;20.804;2023-06-19T00:12:59;100368.00;;;12.82;89.06
75536;BME280;64119;52.070;20.804;2023-06-19T00:15:26;100367.91;;;12.79;88.72
75536;BME280;64119;52.070;20.804;2023-06-19T00:17:58;100367.70;;;12.76;88.86
75536;BME280;64119;52.070;20.804;2023-06-19T00:20:25;100367.85;;;12.72;88.95
75536;BME280;64119;52.070;20.804;2023-06-19T00:22:52;100364.27;;;12.69;88.72
75536;BME280;64119;52.070;20.804;2023-06-19T00:25:19;100364.73;;;12.66;89.42
75536;BME280;64119;52.070;20.804;2023-06-19T00:27:46;100364.88;;;12.62;89.24
75536;BME280;64119;52.070;20.804;2023-06-19T00:30:14;100365.00;;;12.61;88.32
75536;BME280;64119;52.070;20.804;2023-06-19T00:32:40;100370.56;;;12.59;90.00
75536;BME280;64119;52.070;20.804;2023-06-19T00:35:14;100368.99;;;12.54;89.73
75536;BME280;64119;52.070;20.804;2023-06-19T00:37:40;100370.86;;;12.52;89.57
75536;BME280;64119;52.070;20.804;2023-06-19T00:40:26;100376.39;;;12.50;89.24
75536;BME280;64119;52.070;20.804;2023-06-19T00:42:52;100376.59;;;12.48;89.03
75536;BME280;64119;52.070;20.804;2023-06-19T00:45:19;100373.84;;;12.46;89.34
75536;BME280;64119;52.070;20.804;2023-06-19T00:47:46;100372.36;;;12.42;89.55
75536;BME280;64119;52.070;20.804;2023-06-19T00:50:12;100373.58;;;12.40;89.27
75536;BME280;64119;52.070;20.804;2023-06-19T00:52:39;100368.32;;;12.37;89.03
75536;BME280;64119;52.070;20.804;2023-06-19T00:55:06;100368.24;;;12.35;88.65
75536;BME280;64119;52.070;20.804;2023-06-19T00:57:33;100369.48;;;12.34;88.69
75536;BME280;64119;52.070;20.804;2023-06-19T01:00:00;100366.38;;;12.30;88.66
75536;BME280;64119;52.070;20.804;2023-06-19T01:02:26;100372.67;;;12.27;88.56
75536;BME280;64119;52.070;20.804;2023-06-19T01:04:53;100369.66;;;12.23;88.54
75536;BME280;64119;52.070;20.804;2023-06-19T01:07:39;100367.90;;;12.20;88.76
75536;BME280;64119;52.070;20.804;2023-06-19T01:10:13;100369.85;;;12.16;89.30
75536;BME280;64119;52.070;20.804;2023-06-19T01:12:45;100373.76;;;12.12;89.00
75536;BME280;64119;52.070;20.804;2023-06-19T01:15:16;100376.77;;;12.09;89.65
75536;BME280;64119;52.070;20.804;2023-06-19T01:17:45;100377.08;;;12.07;89.33
75536;BME280;64119;52.070;20.804;2023-06-19T01:20:12;100375.44;;;12.05;89.12
75536;BME280;64119;52.070;20.804;2023-06-19T01:22:39;100372.80;;;12.03;89.03
75536;BME280;64119;52.070;20.804;2023-06-19T01:25:06;100369.13;;;12.01;89.06
75536;BME280;64119;52.070;20.804;2023-06-19T01:27:35;100371.16;;;11.99;88.85
75536;BME280;64119;52.070;20.804;2023-06-19T01:30:03;100367.02;;;11.96;88.98
75536;BME280;64119;52.070;20.804;2023-06-19T01:35:12;100371.05;;;11.93;88.55
75536;BME280;64119;52.070;20.804;2023-06-19T01:37:40;100373.23;;;11.88;88.57
75536;BME280;64119;52.070;20.804;2023-06-19T01:40:09;100371.33;;;11.85;88.50
75536;BME280;64119;52.070;20.804;2023-06-19T01:42:38;100371.16;;;11.84;88.15
75536;BME280;64119;52.070;20.804;2023-06-19T01:45:06;100369.60;;;11.83;88.22
75536;BME280;64119;52.070;20.804;2023-06-19T01:47:33;100370.20;;;11.81;89.14
75536;BME280;64119;52.070;20.804;2023-06-19T01:49:59;100372.48;;;11.79;89.17
75536;BME280;64119;52.070;20.804;2023-06-19T01:52:26;100373.75;;;11.77;88.98
75536;BME280;64119;52.070;20.804;2023-06-19T01:54:52;100374.11;;;11.76;89.63
75536;BME280;64119;52.070;20.804;2023-06-19T01:57:20;100373.27;;;11.74;89.30
75536;BME280;64119;52.070;20.804;2023-06-19T01:59:47;100369.84;;;11.74;89.61
75536;BME280;64119;52.070;20.804;2023-06-19T02:02:13;100369.45;;;11.72;89.78
75536;BME280;64119;52.070;20.804;2023-06-19T02:04:39;100368.35;;;11.71;89.58
75536;BME280;64119;52.070;20.804;2023-06-19T02:07:06;100368.91;;;11.70;89.69
75536;BME280;64119;52.070;20.804;2023-06-19T02:09:33;100366.38;;;11.66;90.30
75536;BME280;64119;52.070;20.804;2023-06-19T02:11:59;100365.48;;;11.62;90.28
75536;BME280;64119;52.070;20.804;2023-06-19T02:14:26;100362.18;;;11.57;90.60
75536;BME280;64119;52.070;20.804;2023-06-19T02:16:52;100362.43;;;11.54;90.28
75536;BME280;64119;52.070;20.804;2023-06-19T02:19:19;100362.02;;;11.53;90.17
75536;BME280;64119;52.070;20.804;2023-06-19T02:21:45;100365.80;;;11.50;91.74
75536;BME280;64119;52.070;20.804;2023-06-19T02:24:11;100373.13;;;11.49;90.06
75536;BME280;64119;52.070;20.804;2023-06-19T02:26:38;100374.25;;;11.49;90.94
75536;BME280;64119;52.070;20.804;2023-06-19T02:29:04;100375.46;;;11.46;90.86
75536;BME280;64119;52.070;20.804;2023-06-19T02:31:31;100380.29;;;11.46;90.61
75536;BME280;64119;52.070;20.804;2023-06-19T02:33:57;100377.62;;;11.45;90.58
75536;BME280;64119;52.070;20.804;2023-06-19T02:36:23;100377.55;;;11.41;90.77
75536;BME280;64119;52.070;20.804;2023-06-19T02:38:50;100378.07;;;11.38;90.70
75536;BME280;64119;52.070;20.804;2023-06-19T02:41:16;100375.30;;;11.38;90.11
75536;BME280;64119;52.070;20.804;2023-06-19T02:43:44;100373.62;;;11.38;90.66
75536;BME280;64119;52.070;20.804;2023-06-19T02:46:10;100368.92;;;11.38;90.60
75536;BME280;64119;52.070;20.804;2023-06-19T02:48:40;100373.04;;;11.38;90.43
75536;BME280;64119;52.070;20.804;2023-06-19T02:51:07;100377.39;;;11.37;90.81
75536;BME280;64119;52.070;20.804;2023-06-19T02:53:33;100378.41;;;11.36;90.63
75536;BME280;64119;52.070;20.804;2023-06-19T02:55:59;100380.86;;;11.36;90.46
75536;BME280;64119;52.070;20.804;2023-06-19T02:58:26;100384.00;;;11.35;90.61
75536;BME280;64119;52.070;20.804;2023-06-19T03:00:54;100387.35;;;11.36;89.40
75536;BME280;64119;52.070;20.804;2023-06-19T03:03:21;100386.85;;;11.38;90.29
75536;BME280;64119;52.070;20.804;2023-06-19T03:05:50;100386.85;;;11.38;90.63
75536;BME280;64119;52.070;20.804;2023-06-19T03:08:16;100387.71;;;11.38;90.50
75536;BME280;64119;52.070;20.804;2023-06-19T03:10:42;100387.63;;;11.38;90.42
75536;BME280;64119;52.070;20.804;2023-06-19T03:13:09;100387.45;;;11.41;89.56
75536;BME280;64119;52.070;20.804;2023-06-19T03:15:35;100385.84;;;11.43;89.23
75536;BME280;64119;52.070;20.804;2023-06-19T03:18:02;100386.23;;;11.46;89.19
75536;BME280;64119;52.070;20.804;2023-06-19T03:20:33;100383.77;;;11.49;89.86
75536;BME280;64119;52.070;20.804;2023-06-19T03:23:00;100383.96;;;11.52;90.81
75536;BME280;64119;52.070;20.804;2023-06-19T03:25:26;100381.63;;;11.56;90.39
75536;BME280;64119;52.070;20.804;2023-06-19T03:27:53;100386.23;;;11.60;90.06
75536;BME280;64119;52.070;20.804;2023-06-19T03:30:19;100385.16;;;11.66;90.12
75536;BME280;64119;52.070;20.804;2023-06-19T03:32:48;100387.75;;;11.70;90.93
75536;BME280;64119;52.070;20.804;2023-06-19T03:35:26;100387.36;;;11.78;89.97
75536;BME280;64119;52.070;20.804;2023-06-19T03:37:53;100391.56;;;11.85;89.23
75536;BME280;64119;52.070;20.804;2023-06-19T03:40:19;100390.69;;;11.92;89.26
75536;BME280;64119;52.070;20.804;2023-06-19T03:42:47;100391.25;;;11.98;90.24
75536;BME280;64119;52.070;20.804;2023-06-19T03:45:14;100394.02;;;12.06;90.43
75536;BME280;64119;52.070;20.804;2023-06-19T03:47:40;100393.60;;;12.13;90.09
75536;BME280;64119;52.070;20.804;2023-06-19T03:50:07;100392.66;;;12.22;90.11
75536;BME280;64119;52.070;20.804;2023-06-19T03:52:47;100397.49;;;12.31;90.35
75536;BME280;64119;52.070;20.804;2023-06-19T03:55:14;100389.55;;;12.40;90.43
75536;BME280;64119;52.070;20.804;2023-06-19T03:57:40;100385.52;;;12.49;90.50
75536;BME280;64119;52.070;20.804;2023-06-19T04:00:07;100387.06;;;12.59;90.20
75536;BME280;64119;52.070;20.804;2023-06-19T04:02:39;100382.02;;;12.69;90.16
75536;BME280;64119;52.070;20.804;2023-06-19T04:05:06;100387.81;;;12.80;90.12
75536;BME280;64119;52.070;20.804;2023-06-19T04:07:32;100392.88;;;12.91;90.47
75536;BME280;64119;52.070;20.804;2023-06-19T04:09:59;100392.56;;;13.01;90.20
75536;BME280;64119;52.070;20.804;2023-06-19T04:12:25;100390.75;;;13.14;90.35
75536;BME280;64119;52.070;20.804;2023-06-19T04:14:52;100389.23;;;13.25;90.52
75536;BME280;64119;52.070;20.804;2023-06-19T04:17:19;100396.05;;;13.38;90.57
75536;BME280;64119;52.070;20.804;2023-06-19T04:19:48;100390.46;;;13.50;90.65
75536;BME280;64119;52.070;20.804;2023-06-19T04:22:15;100395.95;;;13.63;91.07
75536;BME280;64119;52.070;20.804;2023-06-19T04:24:41;100393.80;;;13.75;90.98
75536;BME280;64119;52.070;20.804;2023-06-19T04:27:08;100397.83;;;13.88;90.77
75536;BME280;64119;52.070;20.804;2023-06-19T04:29:34;100397.22;;;14.00;90.48
75536;BME280;64119;52.070;20.804;2023-06-19T04:32:01;100398.86;;;14.18;94.70
75536;BME280;64119;52.070;20.804;2023-06-19T04:34:38;100402.29;;;14.38;94.37
75536;BME280;64119;52.070;20.804;2023-06-19T04:37:05;100401.70;;;14.52;91.70
75536;BME280;64119;52.070;20.804;2023-06-19T04:39:31;100398.42;;;14.67;92.27
75536;BME280;64119;52.070;20.804;2023-06-19T04:41:58;100398.50;;;14.81;91.87
75536;BME280;64119;52.070;20.804;2023-06-19T04:44:25;100399.09;;;14.97;94.52
75536;BME280;64119;52.070;20.804;2023-06-19T04:46:51;100394.89;;;15.12;94.13
75536;BME280;64119;52.070;20.804;2023-06-19T04:49:30;100393.33;;;15.26;91.23
75536;BME280;64119;52.070;20.804;2023-06-19T04:51:57;100388.28;;;15.39;91.69
75536;BME280;64119;52.070;20.804;2023-06-19T04:54:27;100392.86;;;15.52;91.34
75536;BME280;64119;52.070;20.804;2023-06-19T04:56:53;100392.29;;;15.66;91.47
75536;BME280;64119;52.070;20.804;2023-06-19T04:59:19;100394.66;;;15.79;90.65
75536;BME280;64119;52.070;20.804;2023-06-19T05:01:46;100395.13;;;15.92;92.05
75536;BME280;64119;52.070;20.804;2023-06-19T05:04:13;100395.13;;;16.07;90.45
75536;BME280;64119;52.070;20.804;2023-06-19T05:06:39;100396.02;;;16.19;89.42
75536;BME280;64119;52.070;20.804;2023-06-19T05:09:06;100398.70;;;16.30;88.98
75536;BME280;64119;52.070;20.804;2023-06-19T05:11:32;100401.11;;;16.41;88.65
75536;BME280;64119;52.070;20.804;2023-06-19T05:13:59;100406.91;;;16.53;89.16
75536;BME280;64119;52.070;20.804;2023-06-19T05:16:26;100404.10;;;16.67;88.95
75536;BME280;64119;52.070;20.804;2023-06-19T05:18:52;100407.27;;;16.79;87.89
75536;BME280;64119;52.070;20.804;2023-06-19T05:21:19;100405.48;;;16.89;87.47
75536;BME280;64119;52.070;20.804;2023-06-19T05:23:46;100411.45;;;17.00;87.44
75536;BME280;64119;52.070;20.804;2023-06-19T05:26:17;100415.00;;;17.12;87.49
75536;BME280;64119;52.070;20.804;2023-06-19T05:28:43;100417.24;;;17.24;86.91
75536;BME280;64119;52.070;20.804;2023-06-19T05:31:09;100420.03;;;17.35;86.48
75536;BME280;64119;52.070;20.804;2023-06-19T05:33:36;100424.38;;;17.44;85.43
75536;BME280;64119;52.070;20.804;2023-06-19T05:36:02;100425.79;;;17.52;84.65
75536;BME280;64119;52.070;20.804;2023-06-19T05:38:29;100429.40;;;17.60;84.71
75536;BME280;64119;52.070;20.804;2023-06-19T05:40:57;100436.70;;;17.71;85.13
75536;BME280;64119;52.070;20.804;2023-06-19T05:43:24;100435.73;;;17.83;84.65
75536;BME280;64119;52.070;20.804;2023-06-19T05:45:54;100438.66;;;17.96;84.30
75536;BME280;64119;52.070;20.804;2023-06-19T05:48:22;100440.05;;;18.08;83.71
75536;BME280;64119;52.070;20.804;2023-06-19T05:50:48;100441.34;;;18.20;83.89
75536;BME280;64119;52.070;20.804;2023-06-19T05:53:16;100441.54;;;18.29;83.29
75536;BME280;64119;52.070;20.804;2023-06-19T05:55:42;100448.02;;;18.41;83.41
75536;BME280;64119;52.070;20.804;2023-06-19T05:58:09;100445.55;;;18.50;81.95
75536;BME280;64119;52.070;20.804;2023-06-19T06:00:35;100446.85;;;18.58;81.28
75536;BME280;64119;52.070;20.804;2023-06-19T06:03:02;100452.18;;;18.67;81.67
75536;BME280;64119;52.070;20.804;2023-06-19T06:05:28;100454.16;;;18.80;82.28
75536;BME280;64119;52.070;20.804;2023-06-19T06:07:55;100452.30;;;18.90;81.01
75536;BME280;64119;52.070;20.804;2023-06-19T06:10:23;100452.52;;;18.98;80.09
75536;BME280;64119;52.070;20.804;2023-06-19T06:12:50;100456.70;;;19.09;80.06
75536;BME280;64119;52.070;20.804;2023-06-19T06:15:17;100457.43;;;19.20;79.75
75536;BME280;64119;52.070;20.804;2023-06-19T06:17:43;100462.93;;;19.33;79.41
75536;BME280;64119;52.070;20.804;2023-06-19T06:20:10;100463.55;;;19.42;79.14
75536;BME280;64119;52.070;20.804;2023-06-19T06:22:40;100463.63;;;19.53;78.15
75536;BME280;64119;52.070;20.804;2023-06-19T06:25:07;100465.15;;;19.67;78.93
75536;BME280;64119;52.070;20.804;2023-06-19T06:27:37;100463.98;;;19.78;77.88
75536;BME280;64119;52.070;20.804;2023-06-19T06:30:04;100464.81;;;19.83;73.90
75536;BME280;64119;52.070;20.804;2023-06-19T06:32:30;100468.39;;;19.93;75.45
75536;BME280;64119;52.070;20.804;2023-06-19T06:34:57;100467.65;;;20.00;74.81
75536;BME280;64119;52.070;20.804;2023-06-19T06:37:25;100468.54;;;20.09;74.41
75536;BME280;64119;52.070;20.804;2023-06-19T06:39:51;100468.34;;;20.18;74.05
75536;BME280;64119;52.070;20.804;2023-06-19T06:42:18;100471.17;;;20.26;73.82
75536;BME280;64119;52.070;20.804;2023-06-19T06:44:45;100467.92;;;20.37;74.63
75536;BME280;64119;52.070;20.804;2023-06-19T06:47:11;100467.27;;;20.49;74.12
75536;BME280;64119;52.070;20.804;2023-06-19T06:49:38;100472.45;;;20.54;73.19
75536;BME280;64119;52.070;20.804;2023-06-19T06:52:05;100470.77;;;20.60;72.59
75536;BME280;64119;52.070;20.804;2023-06-19T06:54:31;100475.06;;;20.63;71.28
75536;BME280;64119;52.070;20.804;2023-06-19T06:56:58;100473.77;;;20.72;71.20
75536;BME280;64119;52.070;20.804;2023-06-19T06:59:26;100469.41;;;20.83;70.70
75536;BME280;64119;52.070;20.804;2023-06-19T07:01:54;100469.55;;;20.95;69.94
75536;BME280;64119;52.070;20.804;2023-06-19T07:04:21;100469.16;;;21.07;70.38
75536;BME280;64119;52.070;20.804;2023-06-19T07:06:47;100466.70;;;21.21;70.63
75536;BME280;64119;52.070;20.804;2023-06-19T07:09:14;100457.27;;;21.33;70.00
75536;BME280;64119;52.070;20.804;2023-06-19T07:11:41;100459.15;;;21.39;67.74
75536;BME280;64119;52.070;20.804;2023-06-19T07:14:07;100455.99;;;21.48;68.29
75536;BME280;64119;52.070;20.804;2023-06-19T07:16:34;100455.41;;;21.49;66.02
75536;BME280;64119;52.070;20.804;2023-06-19T07:19:00;100458.41;;;21.54;66.95
75536;BME280;64119;52.070;20.804;2023-06-19T07:21:28;100455.52;;;21.64;68.42
75536;BME280;64119;52.070;20.804;2023-06-19T07:23:54;100458.52;;;21.71;66.25
75536;BME280;64119;52.070;20.804;2023-06-19T07:26:21;100459.66;;;21.81;67.73
75536;BME280;64119;52.070;20.804;2023-06-19T07:28:47;100460.63;;;21.93;65.80
75536;BME280;64119;52.070;20.804;2023-06-19T07:31:14;100454.70;;;22.04;65.67
75536;BME280;64119;52.070;20.804;2023-06-19T07:33:40;100451.61;;;22.13;64.71
75536;BME280;64119;52.070;20.804;2023-06-19T07:36:06;100457.84;;;22.24;65.97
75536;BME280;64119;52.070;20.804;2023-06-19T07:38:33;100457.10;;;22.36;65.66
75536;BME280;64119;52.070;20.804;2023-06-19T07:40:59;100457.90;;;22.43;63.93
75536;BME280;64119;52.070;20.804;2023-06-19T07:43:26;100458.06;;;22.47;63.36
75536;BME280;64119;52.070;20.804;2023-06-19T07:45:52;100459.02;;;22.55;63.32
75536;BME280;64119;52.070;20.804;2023-06-19T07:48:18;100457.89;;;22.64;64.02
75536;BME280;64119;52.070;20.804;2023-06-19T07:50:45;100458.41;;;22.72;63.50
75536;BME280;64119;52.070;20.804;2023-06-19T07:53:12;100462.61;;;22.86;63.24
75536;BME280;64119;52.070;20.804;2023-06-19T07:55:38;100462.10;;;22.97;62.56
75536;BME280;64119;52.070;20.804;2023-06-19T07:58:04;100459.97;;;23.13;63.26
75536;BME280;64119;52.070;20.804;2023-06-19T08:00:31;100458.31;;;23.27;61.96
75536;BME280;64119;52.070;20.804;2023-06-19T08:02:57;100462.52;;;23.40;61.49
75536;BME280;64119;52.070;20.804;2023-06-19T08:05:24;100460.31;;;23.50;60.89
75536;BME280;64119;52.070;20.804;2023-06-19T08:07:50;100455.33;;;23.63;61.19
75536;BME280;64119;52.070;20.804;2023-06-19T08:10:17;100454.82;;;23.74;59.24
75536;BME280;64119;52.070;20.804;2023-06-19T08:12:44;100455.84;;;23.85;59.87
75536;BME280;64119;52.070;20.804;2023-06-19T08:15:11;100453.66;;;23.94;60.38
75536;BME280;64119;52.070;20.804;2023-06-19T08:17:39;100455.83;;;23.97;58.50
75536;BME280;64119;52.070;20.804;2023-06-19T08:20:07;100453.60;;;24.14;59.44
75536;BME280;64119;52.070;20.804;2023-06-19T08:22:34;100461.36;;;24.29;58.21
75536;BME280;64119;52.070;20.804;2023-06-19T08:25:00;100464.41;;;24.41;54.88
75536;BME280;64119;52.070;20.804;2023-06-19T08:27:26;100463.46;;;24.47;53.72
75536;BME280;64119;52.070;20.804;2023-06-19T08:29:53;100464.05;;;24.54;53.55
75536;BME280;64119;52.070;20.804;2023-06-19T08:32:19;100463.75;;;24.56;50.87
75536;BME280;64119;52.070;20.804;2023-06-19T08:34:46;100462.34;;;24.61;53.37
75536;BME280;64119;52.070;20.804;2023-06-19T08:37:12;100464.81;;;24.76;53.51
75536;BME280;64119;52.070;20.804;2023-06-19T08:39:39;100466.26;;;24.83;50.85
75536;BME280;64119;52.070;20.804;2023-06-19T08:42:06;100464.09;;;24.93;52.06
75536;BME280;64119;52.070;20.804;2023-06-19T08:44:34;100469.77;;;24.97;50.47
75536;BME280;64119;52.070;20.804;2023-06-19T08:47:05;100468.70;;;25.10;52.72
75536;BME280;64119;52.070;20.804;2023-06-19T08:49:35;100467.00;;;25.23;52.31
75536;BME280;64119;52.070;20.804;2023-06-19T08:52:02;100467.56;;;25.36;51.36
75536;BME280;64119;52.070;20.804;2023-06-19T08:54:29;100464.73;;;25.52;50.70
75536;BME280;64119;52.070;20.804;2023-06-19T08:57:00;100460.29;;;25.71;49.72
75536;BME280;64119;52.070;20.804;2023-06-19T08:59:26;100461.90;;;25.84;50.47
75536;BME280;64119;52.070;20.804;2023-06-19T09:01:54;100460.71;;;26.00;48.67
75536;BME280;64119;52.070;20.804;2023-06-19T09:04:28;100457.52;;;26.11;48.43
75536;BME280;64119;52.070;20.804;2023-06-19T09:06:59;100455.30;;;26.10;48.29
75536;BME280;64119;52.070;20.804;2023-06-19T09:09:27;100451.40;;;25.85;48.72
75536;BME280;64119;52.070;20.804;2023-06-19T09:12:00;100451.90;;;25.72;50.97
75536;BME280;64119;52.070;20.804;2023-06-19T09:14:34;100450.50;;;26.00;51.69
75536;BME280;64119;52.070;20.804;2023-06-19T09:17:05;100444.96;;;26.36;48.77
75536;BME280;64119;52.070;20.804;2023-06-19T09:19:33;100447.92;;;26.63;48.03
75536;BME280;64119;52.070;20.804;2023-06-19T09:22:02;100449.40;;;26.54;47.69
75536;BME280;64119;52.070;20.804;2023-06-19T09:24:40;100447.27;;;26.15;47.25
75536;BME280;64119;52.070;20.804;2023-06-19T09:27:12;100452.69;;;26.30;48.57
75536;BME280;64119;52.070;20.804;2023-06-19T09:29:44;100450.96;;;26.60;47.50
75536;BME280;64119;52.070;20.804;2023-06-19T09:32:28;100450.94;;;26.58;46.96
75536;BME280;64119;52.070;20.804;2023-06-19T09:34:57;100449.98;;;26.59;46.53
75536;BME280;64119;52.070;20.804;2023-06-19T09:37:29;100455.50;;;26.96;47.58
75536;BME280;64119;52.070;20.804;2023-06-19T09:40:03;100449.58;;;27.43;45.59
75536;BME280;64119;52.070;20.804;2023-06-19T09:42:38;100444.05;;;27.80;43.81
75536;BME280;64119;52.070;20.804;2023-06-19T09:45:10;100449.58;;;28.26;43.74
75536;BME280;64119;52.070;20.804;2023-06-19T09:47:45;100445.66;;;28.74;41.95
75536;BME280;64119;52.070;20.804;2023-06-19T09:50:16;100444.11;;;29.21;41.86
75536;BME280;64119;52.070;20.804;2023-06-19T09:52:46;100438.92;;;29.57;42.76
75536;BME280;64119;52.070;20.804;2023-06-19T09:55:13;100438.52;;;30.05;42.30
75536;BME280;64119;52.070;20.804;2023-06-19T09:57:41;100431.39;;;30.48;39.20
75536;BME280;64119;52.070;20.804;2023-06-19T10:00:10;100431.49;;;30.87;39.34
75536;BME280;64119;52.070;20.804;2023-06-19T10:02:44;100428.73;;;31.40;36.59
75536;BME280;64119;52.070;20.804;2023-06-19T10:05:11;100425.84;;;31.83;38.23
75536;BME280;64119;52.070;20.804;2023-06-19T10:07:43;100424.55;;;32.39;37.38
75536;BME280;64119;52.070;20.804;2023-06-19T10:10:21;100422.61;;;32.68;33.89
75536;BME280;64119;52.070;20.804;2023-06-19T10:12:49;100418.45;;;32.89;34.70
75536;BME280;64119;52.070;20.804;2023-06-19T10:15:26;100418.08;;;32.30;34.72
75536;BME280;64119;52.070;20.804;2023-06-19T10:17:59;100418.23;;;32.51;34.62
75536;BME280;64119;52.070;20.804;2023-06-19T10:20:37;100424.00;;;32.86;33.62
75536;BME280;64119;52.070;20.804;2023-06-19T10:23:15;100419.61;;;33.07;31.75
75536;BME280;64119;52.070;20.804;2023-06-19T10:25:46;100419.52;;;33.43;32.96
75536;BME280;64119;52.070;20.804;2023-06-19T10:28:20;100415.35;;;33.73;30.68
75536;BME280;64119;52.070;20.804;2023-06-19T10:30:55;100411.87;;;33.89;29.18
75536;BME280;64119;52.070;20.804;2023-06-19T10:33:26;100407.09;;;33.98;29.92
75536;BME280;64119;52.070;20.804;2023-06-19T10:35:55;100403.10;;;34.30;29.87
75536;BME280;64119;52.070;20.804;2023-06-19T10:38:21;100406.01;;;34.23;28.38
75536;BME280;64119;52.070;20.804;2023-06-19T10:40:48;100402.56;;;34.28;30.03
75536;BME280;64119;52.070;20.804;2023-06-19T10:43:22;100399.00;;;34.20;28.99
75536;BME280;64119;52.070;20.804;2023-06-19T10:45:51;100403.70;;;33.80;31.04
75536;BME280;64119;52.070;20.804;2023-06-19T10:48:22;100396.21;;;33.46;28.92
75536;BME280;64119;52.070;20.804;2023-06-19T10:50:50;100393.98;;;33.44;30.96
75536;BME280;64119;52.070;20.804;2023-06-19T10:53:27;100389.58;;;34.06;30.03
75536;BME280;64119;52.070;20.804;2023-06-19T11:09:45;100386.69;;;34.15;28.85
75536;BME280;64119;52.070;20.804;2023-06-19T11:12:19;100389.61;;;33.05;30.58
75536;BME280;64119;52.070;20.804;2023-06-19T11:14:48;100388.42;;;32.80;32.28
75536;BME280;64119;52.070;20.804;2023-06-19T11:17:17;100384.80;;;32.01;33.21
75536;BME280;64119;52.070;20.804;2023-06-19T11:19:50;100385.58;;;31.24;35.20
75536;BME280;64119;52.070;20.804;2023-06-19T11:22:18;100381.30;;;30.87;35.19
75536;BME280;64119;52.070;20.804;2023-06-19T11:24:46;100380.64;;;30.63;35.19
75536;BME280;64119;52.070;20.804;2023-06-19T11:27:21;100379.90;;;30.46;34.71
75536;BME280;64119;52.070;20.804;2023-06-19T11:29:56;100376.59;;;30.72;35.17
75536;BME280;64119;52.070;20.804;2023-06-19T11:32:38;100374.54;;;31.37;34.68
75536;BME280;64119;52.070;20.804;2023-06-19T11:35:12;100372.29;;;31.65;33.70
75536;BME280;64119;52.070;20.804;2023-06-19T11:37:41;100371.66;;;31.25;33.92
75536;BME280;64119;52.070;20.804;2023-06-19T11:40:10;100374.30;;;31.28;34.67
75536;BME280;64119;52.070;20.804;2023-06-19T11:42:47;100372.84;;;31.63;36.97
75536;BME280;64119;52.070;20.804;2023-06-19T11:45:18;100367.97;;;32.01;34.10
75536;BME280;64119;52.070;20.804;2023-06-19T11:47:48;100367.54;;;31.99;33.28
75536;BME280;64119;52.070;20.804;2023-06-19T11:50:16;100368.70;;;31.91;33.24
75536;BME280;64119;52.070;20.804;2023-06-19T11:52:46;100367.20;;;31.46;34.41
75536;BME280;64119;52.070;20.804;2023-06-19T11:55:13;100362.38;;;31.12;34.53
75536;BME280;64119;52.070;20.804;2023-06-19T11:57:43;100358.64;;;30.83;35.27
75536;BME280;64119;52.070;20.804;2023-06-19T12:00:15;100354.30;;;31.13;36.41
75536;BME280;64119;52.070;20.804;2023-06-19T12:02:44;100355.14;;;31.41;34.97
75536;BME280;64119;52.070;20.804;2023-06-19T12:05:16;100355.11;;;31.40;34.70
75536;BME280;64119;52.070;20.804;2023-06-19T12:07:44;100351.67;;;31.27;33.56
75536;BME280;64119;52.070;20.804;2023-06-19T12:10:12;100349.48;;;31.53;33.76
75536;BME280;64119;52.070;20.804;2023-06-19T12:12:42;100349.61;;;31.47;32.81
75536;BME280;64119;52.070;20.804;2023-06-19T12:15:09;100350.52;;;31.30;32.10
75536;BME280;64119;52.070;20.804;2023-06-19T12:17:37;100348.83;;;31.24;32.37
75536;BME280;64119;52.070;20.804;2023-06-19T12:20:05;100347.27;;;31.01;33.58
75536;BME280;64119;52.070;20.804;2023-06-19T12:22:34;100346.27;;;30.91;32.45
75536;BME280;64119;52.070;20.804;2023-06-19T12:25:02;100341.11;;;30.50;32.76
75536;BME280;64119;52.070;20.804;2023-06-19T12:27:30;100339.34;;;30.04;33.25
75536;BME280;64119;52.070;20.804;2023-06-19T12:29:58;100341.48;;;29.87;35.21
75536;BME280;64119;52.070;20.804;2023-06-19T12:32:26;100336.95;;;29.70;35.32
75536;BME280;64119;52.070;20.804;2023-06-19T12:34:53;100339.05;;;29.75;37.61
75536;BME280;64119;52.070;20.804;2023-06-19T12:37:21;100341.76;;;29.88;34.80
75536;BME280;64119;52.070;20.804;2023-06-19T12:39:50;100335.65;;;29.76;36.16
75536;BME280;64119;52.070;20.804;2023-06-19T12:42:18;100334.42;;;29.76;35.34
75536;BME280;64119;52.070;20.804;2023-06-19T12:44:46;100330.42;;;29.82;34.76
75536;BME280;64119;52.070;20.804;2023-06-19T12:47:13;100330.75;;;29.84;35.97
75536;BME280;64119;52.070;20.804;2023-06-19T12:49:42;100328.37;;;29.96;35.93
75536;BME280;64119;52.070;20.804;2023-06-19T12:52:10;100325.84;;;30.02;37.26
75536;BME280;64119;52.070;20.804;2023-06-19T12:54:38;100323.74;;;29.97;36.76
75536;BME280;64119;52.070;20.804;2023-06-19T12:57:09;100317.58;;;29.91;35.97
75536;BME280;64119;52.070;20.804;2023-06-19T12:59:37;100314.23;;;29.89;35.93
75536;BME280;64119;52.070;20.804;2023-06-19T13:02:05;100311.51;;;29.85;34.89